Time;durP1;ratioP1;P1;durP2;ratioP2;P2;SDS_P1;SDS_P2;PMS_P1;PMS_P2;Temp;Humidity;BMP_temperature;BMP_pressure;BME280_temperature;BME280_humidity;BME280_pressure;Samples;Min_cycle;Max_cycle;Signal;HPM_P1;HPM_P2
2024/02/14 00:02:08;;;;;;;11.60;5.30;;;;;;;;;;5070436;28;20008;-58
2024/02/14 00:04:34;;;;;;;10.75;4.85;;;;;;;;;;5070700;28;20074;-58
2024/02/14 00:07:00;;;;;;;9.20;5.35;;;;;;;;;;5071982;28;20020;-58
2024/02/14 00:09:26;;;;;;;10.68;5.32;;;;;;;;;;5071819;28;20040;-58
2024/02/14 00:11:52;;;;;;;13.63;5.60;;;;;;;;;;5071948;28;20464;-58
2024/02/14 00:14:21;;;;;;;15.88;5.60;;;;;;;;;;5082501;28;20028;-58
2024/02/14 00:16:48;;;;;;;8.18;4.47;;;;;;;;;;5072058;28;20049;-58
2024/02/14 00:19:14;;;;;;;7.82;4.90;;;;;;;;;;5071316;28;20028;-58
2024/02/14 00:21:40;;;;;;;8.75;4.80;;;;;;;;;;5071340;28;20107;-58
2024/02/14 00:24:06;;;;;;;9.27;4.95;;;;;;;;;;5071791;28;20037;-58
2024/02/14 00:26:33;;;;;;;7.50;4.28;;;;;;;;;;5071575;28;20039;-59
2024/02/14 00:28:59;;;;;;;11.00;4.57;;;;;;;;;;5071763;28;20021;-58
2024/02/14 00:31:25;;;;;;;8.38;4.78;;;;;;;;;;5071075;28;20039;-58
2024/02/14 00:33:50;;;;;;;10.48;5.05;;;;;;;;;;5072094;28;20029;-58
2024/02/14 00:36:17;;;;;;;9.85;4.88;;;;;;;;;;5067567;28;20035;-58
2024/02/14 00:38:43;;;;;;;11.55;5.28;;;;;;;;;;5071194;28;20025;-58
2024/02/14 00:41:11;;;;;;;7.47;4.32;;;;;;;;;;5071199;28;20043;-58
2024/02/14 00:43:37;;;;;;;8.93;4.72;;;;;;;;;;5071762;28;20490;-58
2024/02/14 00:46:03;;;;;;;6.95;4.25;;;;;;;;;;5071491;28;20111;-59
2024/02/14 00:48:29;;;;;;;12.43;4.90;;;;;;;;;;5071944;28;20111;-58
2024/02/14 00:50:55;;;;;;;9.02;5.20;;;;;;;;;;5071733;28;20060;-58
2024/02/14 00:53:21;;;;;;;8.88;4.35;;;;;;;;;;5070589;28;20032;-59
2024/02/14 00:55:47;;;;;;;8.15;4.97;;;;;;;;;;5066285;28;20036;-58
2024/02/14 00:58:13;;;;;;;7.72;5.00;;;;;;;;;;5074607;28;20032;-60
2024/02/14 01:00:39;;;;;;;8.55;4.80;;;;;;;;;;5071595;28;20025;-60
2024/02/14 01:03:07;;;;;;;10.60;4.47;;;;;;;;;;5069770;28;20025;-60
2024/02/14 01:05:33;;;;;;;13.20;4.88;;;;;;;;;;5071699;28;20044;-60
2024/02/14 01:08:00;;;;;;;8.55;4.68;;;;;;;;;;5071568;28;20028;-61
2024/02/14 01:10:26;;;;;;;7.68;4.32;;;;;;;;;;5072467;28;20111;-60
2024/02/14 01:12:52;;;;;;;10.00;5.47;;;;;;;;;;5071312;28;20031;-59
2024/02/14 01:15:17;;;;;;;13.68;5.78;;;;;;;;;;5071317;28;20024;-60
2024/02/14 01:17:47;;;;;;;9.73;5.20;;;;;;;;;;5071190;28;20036;-60
2024/02/14 01:20:13;;;;;;;7.38;4.72;;;;;;;;;;5058602;28;20042;-60
2024/02/14 01:22:39;;;;;;;8.13;5.00;;;;;;;;;;5070262;28;20643;-60
2024/02/14 01:25:06;;;;;;;8.43;4.90;;;;;;;;;;5071332;28;20020;-60
2024/02/14 01:27:32;;;;;;;6.97;4.85;;;;;;;;;;5071096;28;20500;-59
2024/02/14 01:29:58;;;;;;;10.05;5.35;;;;;;;;;;5071473;28;20033;-60
2024/02/14 01:32:24;;;;;;;9.35;4.70;;;;;;;;;;5072967;28;20036;-60
2024/02/14 01:34:50;;;;;;;13.25;5.07;;;;;;;;;;5075141;28;20441;-59
2024/02/14 01:37:17;;;;;;;9.00;5.03;;;;;;;;;;5074619;28;20032;-60
2024/02/14 01:39:42;;;;;;;14.52;6.40;;;;;;;;;;5080086;28;20028;-60
2024/02/14 01:42:08;;;;;;;8.80;5.13;;;;;;;;;;5075056;28;20032;-59
2024/02/14 01:44:36;;;;;;;10.68;5.53;;;;;;;;;;5074702;28;20017;-60
2024/02/14 01:47:02;;;;;;;8.70;5.10;;;;;;;;;;5073907;28;20107;-60
2024/02/14 01:49:28;;;;;;;7.88;4.88;;;;;;;;;;5081572;28;20567;-60
2024/02/14 01:51:56;;;;;;;8.50;5.13;;;;;;;;;;5082088;28;20066;-60
2024/02/14 01:54:22;;;;;;;11.23;5.05;;;;;;;;;;5074431;28;20029;-60
2024/02/14 01:56:48;;;;;;;8.18;4.57;;;;;;;;;;5073194;28;20032;-60
2024/02/14 01:59:16;;;;;;;6.45;4.03;;;;;;;;;;5074108;28;20025;-60
2024/02/14 02:01:42;;;;;;;8.85;5.15;;;;;;;;;;5074706;28;20043;-60
2024/02/14 02:04:08;;;;;;;10.75;5.50;;;;;;;;;;5071608;28;20021;-59
2024/02/14 02:06:34;;;;;;;10.38;5.20;;;;;;;;;;5074627;28;20023;-57
2024/02/14 02:09:01;;;;;;;9.38;4.72;;;;;;;;;;5074430;28;20025;-56
2024/02/14 02:11:27;;;;;;;9.88;4.68;;;;;;;;;;5074487;28;20032;-57
2024/02/14 02:13:53;;;;;;;20.38;8.63;;;;;;;;;;5074234;28;20033;-56
2024/02/14 02:16:20;;;;;;;10.30;6.47;;;;;;;;;;5073069;28;20106;-56
2024/02/14 02:18:46;;;;;;;10.52;4.45;;;;;;;;;;5073846;28;20120;-57
2024/02/14 02:21:12;;;;;;;10.30;5.38;;;;;;;;;;5074206;28;20089;-57
2024/02/14 02:23:43;;;;;;;10.90;5.68;;;;;;;;;;5073207;28;20463;-57
2024/02/14 02:26:11;;;;;;;10.85;5.50;;;;;;;;;;5073843;28;20032;-56
2024/02/14 02:28:37;;;;;;;10.80;5.30;;;;;;;;;;5073687;28;20113;-56
2024/02/14 02:31:03;;;;;;;20.67;8.55;;;;;;;;;;5073944;28;20029;-57
2024/02/14 02:33:29;;;;;;;14.50;5.80;;;;;;;;;;5074602;28;20025;-56
2024/02/14 02:35:55;;;;;;;13.23;5.22;;;;;;;;;;5073781;28;20029;-56
2024/02/14 02:38:21;;;;;;;10.70;5.72;;;;;;;;;;5073469;28;20063;-57
2024/02/14 02:40:47;;;;;;;13.88;5.53;;;;;;;;;;5077041;28;20777;-57
2024/02/14 02:43:13;;;;;;;8.15;5.10;;;;;;;;;;5072792;28;20032;-56
2024/02/14 02:45:39;;;;;;;10.27;4.72;;;;;;;;;;5073375;28;20025;-58
2024/02/14 02:48:06;;;;;;;10.85;5.10;;;;;;;;;;5075040;28;20082;-58
2024/02/14 02:50:32;;;;;;;7.85;4.70;;;;;;;;;;5073694;28;20043;-57
2024/02/14 02:52:58;;;;;;;9.02;4.80;;;;;;;;;;5073263;28;20020;-56
2024/02/14 02:55:26;;;;;;;11.43;5.18;;;;;;;;;;5073874;28;20043;-56
2024/02/14 02:57:52;;;;;;;10.07;5.63;;;;;;;;;;5073426;28;20448;-57
2024/02/14 03:00:21;;;;;;;9.48;5.32;;;;;;;;;;5073299;28;20073;-57
2024/02/14 03:02:47;;;;;;;10.27;5.53;;;;;;;;;;5072947;28;20077;-57
2024/02/14 03:05:17;;;;;;;11.73;5.57;;;;;;;;;;5071528;28;20028;-58
2024/02/14 03:07:48;;;;;;;9.00;5.07;;;;;;;;;;5073144;28;20400;-57
2024/02/14 03:10:17;;;;;;;11.52;4.68;;;;;;;;;;5072952;28;20028;-57
2024/02/14 03:12:43;;;;;;;10.05;5.00;;;;;;;;;;5072065;28;20067;-57
2024/02/14 03:15:10;;;;;;;9.57;5.13;;;;;;;;;;5072697;28;20024;-56
2024/02/14 03:17:37;;;;;;;10.85;5.60;;;;;;;;;;5072742;28;20049;-59
2024/02/14 03:20:07;;;;;;;8.30;4.72;;;;;;;;;;5072916;28;20060;-59
2024/02/14 03:22:33;;;;;;;10.52;5.63;;;;;;;;;;5067297;28;20040;-60
2024/02/14 03:24:59;;;;;;;11.30;5.20;;;;;;;;;;5072033;28;20024;-59
2024/02/14 03:27:26;;;;;;;9.75;4.95;;;;;;;;;;5071536;28;20028;-60
2024/02/14 03:29:55;;;;;;;8.05;4.82;;;;;;;;;;5072782;28;20064;-60
2024/02/14 03:32:23;;;;;;;9.80;4.95;;;;;;;;;;5072584;28;20059;-60
2024/02/14 03:34:49;;;;;;;9.05;5.15;;;;;;;;;;5072816;28;20539;-59
2024/02/14 03:37:15;;;;;;;13.38;5.50;;;;;;;;;;5071824;28;20086;-59
2024/02/14 03:39:41;;;;;;;9.88;5.30;;;;;;;;;;5075139;28;20036;-60
2024/02/14 03:42:07;;;;;;;6.93;4.90;;;;;;;;;;5070700;28;20403;-60
2024/02/14 03:44:33;;;;;;;11.15;5.18;;;;;;;;;;5072650;28;20613;-60
2024/02/14 03:47:00;;;;;;;7.53;4.80;;;;;;;;;;5069111;28;20029;-59
2024/02/14 03:49:26;;;;;;;10.38;5.32;;;;;;;;;;5069170;28;20501;-59
2024/02/14 03:51:54;;;;;;;9.90;4.70;;;;;;;;;;5072090;28;20032;-60
2024/02/14 03:54:20;;;;;;;8.50;4.90;;;;;;;;;;5077040;28;20027;-60
2024/02/14 03:56:46;;;;;;;9.27;5.15;;;;;;;;;;5079710;28;20036;-59
2024/02/14 03:59:12;;;;;;;9.27;5.63;;;;;;;;;;5071677;28;20089;-59
2024/02/14 04:01:38;;;;;;;11.57;5.45;;;;;;;;;;5071411;28;20112;-60
2024/02/14 04:04:05;;;;;;;9.15;5.30;;;;;;;;;;5072039;28;20024;-59
2024/02/14 04:06:31;;;;;;;10.07;5.55;;;;;;;;;;5071690;28;20369;-60
2024/02/14 04:08:58;;;;;;;8.70;5.22;;;;;;;;;;5072116;28;20025;-60
2024/02/14 04:11:24;;;;;;;9.23;5.75;;;;;;;;;;5071903;28;20115;-59
2024/02/14 04:13:50;;;;;;;10.80;5.55;;;;;;;;;;5071244;28;20029;-59
2024/02/14 04:16:20;;;;;;;10.52;5.30;;;;;;;;;;5071701;28;20067;-59
2024/02/14 04:18:45;;;;;;;10.95;5.65;;;;;;;;;;5072039;28;20128;-61
2024/02/14 04:21:11;;;;;;;10.45;5.38;;;;;;;;;;5072361;28;20051;-60
2024/02/14 04:23:37;;;;;;;9.15;5.55;;;;;;;;;;5070953;28;20077;-59
2024/02/14 04:26:03;;;;;;;9.55;5.10;;;;;;;;;;5071329;28;20024;-59
2024/02/14 04:28:29;;;;;;;9.77;5.18;;;;;;;;;;5071894;28;20028;-60
2024/02/14 04:30:56;;;;;;;9.32;5.57;;;;;;;;;;5071744;28;20086;-59
2024/02/14 04:33:22;;;;;;;12.77;5.50;;;;;;;;;;5071740;28;20025;-60
2024/02/14 04:35:48;;;;;;;12.40;5.32;;;;;;;;;;5071628;28;20028;-59
2024/02/14 04:38:14;;;;;;;10.30;5.50;;;;;;;;;;5070697;28;20033;-58
2024/02/14 04:40:40;;;;;;;11.43;5.97;;;;;;;;;;5065808;28;20024;-59
2024/02/14 04:43:06;;;;;;;11.10;5.43;;;;;;;;;;5071400;28;20044;-59
2024/02/14 04:45:32;;;;;;;6.72;4.85;;;;;;;;;;5070457;28;20025;-57
2024/02/14 04:47:58;;;;;;;9.90;4.68;;;;;;;;;;5071530;28;20031;-59
2024/02/14 04:50:24;;;;;;;9.23;5.00;;;;;;;;;;5071652;28;20025;-60
2024/02/14 04:52:50;;;;;;;7.90;5.05;;;;;;;;;;5060550;28;20031;-59
2024/02/14 04:55:16;;;;;;;9.07;6.15;;;;;;;;;;5071541;28;20524;-60
2024/02/14 04:57:43;;;;;;;10.70;5.57;;;;;;;;;;5068321;28;20020;-59
2024/02/14 05:00:09;;;;;;;10.95;5.70;;;;;;;;;;5071292;28;20040;-59
2024/02/14 05:02:36;;;;;;;7.68;4.90;;;;;;;;;;5066793;28;20035;-57
2024/02/14 05:05:03;;;;;;;11.95;5.53;;;;;;;;;;5068330;28;20043;-59
2024/02/14 05:07:29;;;;;;;9.43;5.15;;;;;;;;;;5075088;28;20052;-59
2024/02/14 05:09:56;;;;;;;11.23;5.32;;;;;;;;;;5074895;28;20040;-59
2024/02/14 05:12:22;;;;;;;8.48;5.25;;;;;;;;;;5075142;28;20037;-59
2024/02/14 05:14:48;;;;;;;9.57;4.95;;;;;;;;;;5075071;28;20503;-59
2024/02/14 05:17:14;;;;;;;10.88;6.00;;;;;;;;;;5074614;28;20076;-60
2024/02/14 05:19:42;;;;;;;11.07;5.38;;;;;;;;;;5074893;28;20051;-59
2024/02/14 05:22:08;;;;;;;10.88;7.07;;;;;;;;;;5073613;28;20032;-59
2024/02/14 05:24:37;;;;;;;10.45;7.50;;;;;;;;;;5074279;28;20040;-59
2024/02/14 05:27:03;;;;;;;9.30;5.82;;;;;;;;;;5073746;28;20051;-59
2024/02/14 05:29:29;;;;;;;13.00;10.80;;;;;;;;;;5073932;28;20476;-59
2024/02/14 05:31:55;;;;;;;9.88;6.35;;;;;;;;;;5071209;28;20043;-59
2024/02/14 05:34:21;;;;;;;11.57;7.28;;;;;;;;;;5078510;28;20040;-59
2024/02/14 05:36:47;;;;;;;9.75;5.90;;;;;;;;;;5075108;28;20029;-59
2024/02/14 05:39:14;;;;;;;9.63;5.15;;;;;;;;;;5071832;28;20040;-60
2024/02/14 05:41:40;;;;;;;12.23;5.22;;;;;;;;;;5069969;28;20035;-59
2024/02/14 05:44:06;;;;;;;11.43;5.30;;;;;;;;;;5075025;28;20484;-59
2024/02/14 05:46:32;;;;;;;9.48;5.60;;;;;;;;;;5077821;28;20024;-60
2024/02/14 05:48:58;;;;;;;11.10;6.22;;;;;;;;;;5077062;28;20035;-60
2024/02/14 05:51:24;;;;;;;9.77;5.53;;;;;;;;;;5071790;28;20036;-60
2024/02/14 05:53:50;;;;;;;10.73;5.93;;;;;;;;;;5076567;28;20143;-60
2024/02/14 05:56:16;;;;;;;9.68;5.57;;;;;;;;;;5074724;28;20115;-60
2024/02/14 05:58:42;;;;;;;11.80;6.72;;;;;;;;;;5074499;28;20021;-60
2024/02/14 06:01:08;;;;;;;12.13;8.00;;;;;;;;;;5078694;28;20029;-60
2024/02/14 06:03:34;;;;;;;10.60;6.03;;;;;;;;;;5073560;28;20063;-60
2024/02/14 06:06:00;;;;;;;14.07;7.30;;;;;;;;;;5079261;28;20024;-60
2024/02/14 06:08:26;;;;;;;11.07;6.35;;;;;;;;;;5070930;28;20078;-60
2024/02/14 06:10:53;;;;;;;10.30;6.38;;;;;;;;;;5073610;28;20044;-59
2024/02/14 06:13:19;;;;;;;9.23;5.72;;;;;;;;;;5073617;28;20024;-60
2024/02/14 06:15:45;;;;;;;13.77;7.18;;;;;;;;;;5071324;28;20170;-60
2024/02/14 06:18:11;;;;;;;15.27;5.78;;;;;;;;;;5073008;28;20040;-60
2024/02/14 06:20:39;;;;;;;9.90;5.63;;;;;;;;;;5073266;28;20028;-60
2024/02/14 06:23:05;;;;;;;10.02;5.78;;;;;;;;;;5080294;28;20035;-60
2024/02/14 06:25:31;;;;;;;9.90;6.32;;;;;;;;;;5074514;28;20031;-60
2024/02/14 06:27:57;;;;;;;17.52;10.57;;;;;;;;;;5074342;28;20029;-60
2024/02/14 06:30:23;;;;;;;10.27;6.20;;;;;;;;;;5074015;28;20031;-60
2024/02/14 06:32:49;;;;;;;14.98;8.65;;;;;;;;;;5073183;28;20059;-60
2024/02/14 06:35:18;;;;;;;9.88;5.90;;;;;;;;;;5073156;28;20025;-60
2024/02/14 06:37:44;;;;;;;19.58;12.48;;;;;;;;;;5069936;28;20104;-60
2024/02/14 06:40:10;;;;;;;8.63;5.00;;;;;;;;;;5073219;28;20024;-60
2024/02/14 06:42:37;;;;;;;13.73;7.38;;;;;;;;;;5073097;28;20040;-60
2024/02/14 06:45:03;;;;;;;22.25;10.43;;;;;;;;;;5071643;28;20024;-60
2024/02/14 06:47:29;;;;;;;12.85;7.03;;;;;;;;;;5073110;28;20020;-60
2024/02/14 06:49:56;;;;;;;9.25;5.47;;;;;;;;;;5073311;28;20107;-60
2024/02/14 06:52:22;;;;;;;11.80;6.95;;;;;;;;;;5073206;28;20028;-60
2024/02/14 06:54:48;;;;;;;10.23;4.68;;;;;;;;;;5069969;28;20040;-60
2024/02/14 06:57:14;;;;;;;10.32;5.00;;;;;;;;;;5071613;28;20028;-60
2024/02/14 06:59:40;;;;;;;9.57;4.85;;;;;;;;;;5072825;28;20025;-60
2024/02/14 07:02:06;;;;;;;8.30;4.55;;;;;;;;;;5071436;28;20028;-60
2024/02/14 07:04:32;;;;;;;9.43;4.70;;;;;;;;;;5072712;28;20033;-60
2024/02/14 07:06:58;;;;;;;9.75;5.25;;;;;;;;;;5072797;28;20024;-60
2024/02/14 07:09:25;;;;;;;8.07;4.35;;;;;;;;;;5069529;28;20035;-60
2024/02/14 07:11:53;;;;;;;7.70;4.30;;;;;;;;;;5072134;28;20028;-60
2024/02/14 07:14:19;;;;;;;7.95;4.22;;;;;;;;;;5072666;28;20029;-60
2024/02/14 07:16:45;;;;;;;9.15;4.60;;;;;;;;;;5072279;28;20050;-60
2024/02/14 07:19:11;;;;;;;7.60;4.80;;;;;;;;;;5072464;28;20047;-61
2024/02/14 07:21:37;;;;;;;14.57;6.13;;;;;;;;;;5072366;28;20111;-61
2024/02/14 07:24:04;;;;;;;13.50;5.93;;;;;;;;;;5072362;28;20023;-61
2024/02/14 07:26:30;;;;;;;9.02;4.78;;;;;;;;;;5071148;28;20029;-60
2024/02/14 07:28:56;;;;;;;12.30;4.25;;;;;;;;;;5072153;28;20029;-60
2024/02/14 07:31:22;;;;;;;8.40;3.85;;;;;;;;;;5071212;28;20036;-60
2024/02/14 07:33:49;;;;;;;7.40;3.72;;;;;;;;;;5072303;28;20372;-60
2024/02/14 07:36:15;;;;;;;7.95;4.30;;;;;;;;;;5071771;28;20484;-60
2024/02/14 07:38:42;;;;;;;11.90;3.97;;;;;;;;;;5071769;28;20040;-60
2024/02/14 07:41:08;;;;;;;8.30;4.25;;;;;;;;;;5070836;28;20036;-59
2024/02/14 07:43:35;;;;;;;8.73;3.72;;;;;;;;;;5072043;28;20112;-61
2024/02/14 07:46:01;;;;;;;6.50;3.25;;;;;;;;;;5071703;28;20044;-60
2024/02/14 07:48:28;;;;;;;8.52;4.03;;;;;;;;;;5072025;28;20035;-60
2024/02/14 07:50:55;;;;;;;6.20;3.33;;;;;;;;;;5071933;28;20025;-60
2024/02/14 07:53:21;;;;;;;5.07;2.85;;;;;;;;;;5071992;28;20028;-60
2024/02/14 07:55:49;;;;;;;9.00;3.75;;;;;;;;;;5070301;28;20070;-60
2024/02/14 07:58:15;;;;;;;6.40;3.03;;;;;;;;;;5071740;28;20020;-60
2024/02/14 08:00:41;;;;;;;6.72;3.08;;;;;;;;;;5070079;28;20089;-60
2024/02/14 08:03:07;;;;;;;8.30;3.80;;;;;;;;;;5070004;28;20036;-60
2024/02/14 08:05:33;;;;;;;6.85;3.53;;;;;;;;;;5071683;28;20105;-60
2024/02/14 08:07:59;;;;;;;5.10;2.80;;;;;;;;;;5069709;28;20036;-60
2024/02/14 08:10:25;;;;;;;7.82;3.88;;;;;;;;;;5070074;28;20120;-60
2024/02/14 08:12:51;;;;;;;8.40;3.22;;;;;;;;;;5071392;28;20040;-60
2024/02/14 08:15:17;;;;;;;7.38;3.10;;;;;;;;;;5071546;28;20391;-59
2024/02/14 08:17:43;;;;;;;5.60;3.13;;;;;;;;;;5069700;28;20136;-60
2024/02/14 08:20:09;;;;;;;6.22;3.17;;;;;;;;;;5071595;28;20021;-60
2024/02/14 08:22:35;;;;;;;7.72;3.33;;;;;;;;;;5071416;28;20027;-60
2024/02/14 08:25:02;;;;;;;6.75;2.97;;;;;;;;;;5071559;28;20017;-60
2024/02/14 08:27:27;;;;;;;7.28;3.20;;;;;;;;;;5071281;28;20028;-60
2024/02/14 08:29:53;;;;;;;5.22;2.97;;;;;;;;;;5071442;28;20399;-60
2024/02/14 08:32:19;;;;;;;5.40;2.72;;;;;;;;;;5069889;28;20029;-60
2024/02/14 08:34:45;;;;;;;3.90;2.63;;;;;;;;;;5071467;28;20442;-60
2024/02/14 08:37:12;;;;;;;5.63;2.83;;;;;;;;;;5069920;28;20027;-61
2024/02/14 08:39:38;;;;;;;4.85;2.50;;;;;;;;;;5071268;28;20025;-60
2024/02/14 08:42:07;;;;;;;6.57;2.67;;;;;;;;;;5070496;28;20029;-60
2024/02/14 08:44:34;;;;;;;5.82;2.53;;;;;;;;;;5071509;28;20028;-61
2024/02/14 08:47:00;;;;;;;3.38;2.40;;;;;;;;;;5071177;28;20017;-61
2024/02/14 08:49:26;;;;;;;4.63;2.42;;;;;;;;;;5071378;28;20032;-61
2024/02/14 08:51:52;;;;;;;8.32;2.50;;;;;;;;;;5071057;28;20441;-61
2024/02/14 08:54:18;;;;;;;5.25;2.72;;;;;;;;;;5071422;28;20360;-61
2024/02/14 08:56:44;;;;;;;7.68;2.85;;;;;;;;;;5070885;28;20021;-61
2024/02/14 08:59:11;;;;;;;6.20;2.55;;;;;;;;;;5069407;28;20142;-61
2024/02/14 09:01:37;;;;;;;5.47;2.83;;;;;;;;;;5071153;28;20472;-61
2024/02/14 09:04:03;;;;;;;11.25;3.05;;;;;;;;;;5071068;28;20025;-61
2024/02/14 09:06:29;;;;;;;3.65;2.05;;;;;;;;;;5071020;28;20032;-59
2024/02/14 09:08:55;;;;;;;8.80;2.92;;;;;;;;;;5069653;28;20033;-59
2024/02/14 09:11:22;;;;;;;5.60;2.55;;;;;;;;;;5069024;28;20024;-59
2024/02/14 09:13:50;;;;;;;4.80;2.45;;;;;;;;;;5069814;28;20025;-59
2024/02/14 09:16:16;;;;;;;3.70;2.03;;;;;;;;;;5070832;28;20464;-59
2024/02/14 09:18:46;;;;;;;6.78;2.42;;;;;;;;;;5070746;28;20028;-58
2024/02/14 09:21:12;;;;;;;5.07;2.45;;;;;;;;;;5071067;28;20059;-58
2024/02/14 09:23:39;;;;;;;4.28;2.70;;;;;;;;;;5071032;28;20028;-58
2024/02/14 09:26:05;;;;;;;3.25;1.90;;;;;;;;;;5070591;28;20025;-59
2024/02/14 09:28:33;;;;;;;4.38;2.60;;;;;;;;;;5069391;28;20043;-59
2024/02/14 09:30:59;;;;;;;8.38;2.70;;;;;;;;;;5070840;28;20024;-59
2024/02/14 09:33:25;;;;;;;8.70;3.20;;;;;;;;;;5070744;28;20033;-59
2024/02/14 09:35:51;;;;;;;4.10;2.30;;;;;;;;;;5070689;28;20032;-58
2024/02/14 09:38:17;;;;;;;3.65;2.72;;;;;;;;;;5070657;28;20498;-59
2024/02/14 09:40:44;;;;;;;5.15;2.30;;;;;;;;;;5070511;28;20024;-59
2024/02/14 09:43:21;;;;;;;4.38;2.50;;;;;;;;;;5070601;28;20031;-59
2024/02/14 09:45:49;;;;;;;7.57;2.80;;;;;;;;;;5068807;28;20032;-59
2024/02/14 09:48:16;;;;;;;5.38;2.30;;;;;;;;;;5070171;28;20020;-58
2024/02/14 09:50:43;;;;;;;5.65;2.40;;;;;;;;;;5070454;28;20028;-59
2024/02/14 09:53:09;;;;;;;4.15;2.53;;;;;;;;;;5070666;28;20100;-59
2024/02/14 09:55:35;;;;;;;4.28;2.65;;;;;;;;;;5069663;28;20028;-58
2024/02/14 09:58:04;;;;;;;6.13;2.85;;;;;;;;;;5074030;28;20016;-58
2024/02/14 10:00:32;;;;;;;7.82;2.80;;;;;;;;;;5072891;28;20037;-58
2024/02/14 10:02:59;;;;;;;6.70;2.90;;;;;;;;;;5073990;28;20116;-59
2024/02/14 10:05:25;;;;;;;5.32;2.40;;;;;;;;;;5073725;28;20074;-58
2024/02/14 10:07:51;;;;;;;6.68;2.55;;;;;;;;;;5073659;28;20120;-58
2024/02/14 10:10:17;;;;;;;3.92;2.80;;;;;;;;;;5074165;28;20102;-59
2024/02/14 10:12:43;;;;;;;5.57;2.70;;;;;;;;;;5072184;28;20036;-59
2024/02/14 10:15:09;;;;;;;3.88;2.67;;;;;;;;;;5073936;28;20033;-58
2024/02/14 10:17:36;;;;;;;4.85;2.70;;;;;;;;;;5073744;28;20055;-57
2024/02/14 10:20:06;;;;;;;4.72;2.75;;;;;;;;;;5073474;28;20384;-57
2024/02/14 10:22:38;;;;;;;6.20;2.88;;;;;;;;;;5071965;28;20032;-58
2024/02/14 10:25:08;;;;;;;3.63;2.30;;;;;;;;;;5071182;28;20043;-58
2024/02/14 10:27:34;;;;;;;10.05;2.65;;;;;;;;;;5072941;28;20123;-58
2024/02/14 10:30:00;;;;;;;3.13;1.98;;;;;;;;;;5073567;28;20487;-58
2024/02/14 10:32:26;;;;;;;4.57;2.70;;;;;;;;;;5073371;28;20070;-57
2024/02/14 10:34:52;;;;;;;6.22;2.50;;;;;;;;;;5073238;28;20555;-57
2024/02/14 10:37:18;;;;;;;3.97;2.13;;;;;;;;;;5073311;28;20024;-57
2024/02/14 10:39:47;;;;;;;3.75;1.92;;;;;;;;;;5073435;28;20594;-58
2024/02/14 10:42:13;;;;;;;5.00;2.78;;;;;;;;;;5071799;28;20509;-58
2024/02/14 10:44:39;;;;;;;4.00;2.30;;;;;;;;;;5073471;28;20142;-57
2024/02/14 10:47:07;;;;;;;7.63;2.72;;;;;;;;;;5071237;28;20366;-58
2024/02/14 10:49:33;;;;;;;5.63;2.63;;;;;;;;;;5071684;28;20077;-57
2024/02/14 10:52:02;;;;;;;5.43;2.38;;;;;;;;;;5072918;28;20033;-58
2024/02/14 10:54:28;;;;;;;5.78;2.33;;;;;;;;;;5071780;28;20119;-57
2024/02/14 10:56:56;;;;;;;4.28;2.60;;;;;;;;;;5072882;28;20035;-57
2024/02/14 10:59:23;;;;;;;3.15;2.20;;;;;;;;;;5072964;28;20391;-58
2024/02/14 11:01:49;;;;;;;5.32;2.83;;;;;;;;;;5072599;28;20058;-58
2024/02/14 11:04:16;;;;;;;4.95;2.15;;;;;;;;;;5072562;28;20024;-57
2024/02/14 11:06:46;;;;;;;3.88;2.03;;;;;;;;;;5072784;28;20021;-59
2024/02/14 11:09:12;;;;;;;4.28;2.00;;;;;;;;;;5070387;28;20044;-57
2024/02/14 11:11:39;;;;;;;3.63;2.33;;;;;;;;;;5072741;28;20108;-57
2024/02/14 11:14:05;;;;;;;7.03;2.45;;;;;;;;;;5071009;28;20028;-57
2024/02/14 11:16:33;;;;;;;5.10;2.03;;;;;;;;;;5072333;28;20695;-57
2024/02/14 11:19:09;;;;;;;6.70;2.20;;;;;;;;;;5072454;28;20063;-59
2024/02/14 11:21:42;;;;;;;6.07;2.42;;;;;;;;;;5072543;28;20025;-57
2024/02/14 11:24:08;;;;;;;;;;;;;;;;;;5072804;28;20507;-58
2024/02/14 11:26:40;;;;;;;5.68;2.05;;;;;;;;;;5072625;28;19955;-60
2024/02/14 11:29:07;;;;;;;4.03;2.63;;;;;;;;;;5072163;28;20086;-60
2024/02/14 11:31:37;;;;;;;4.85;1.70;;;;;;;;;;5071032;28;20111;-60
2024/02/14 11:34:04;;;;;;;4.32;2.15;;;;;;;;;;5072266;28;20027;-60
2024/02/14 11:36:31;;;;;;;3.40;2.10;;;;;;;;;;5072242;28;20066;-60
2024/02/14 11:38:57;;;;;;;3.53;2.08;;;;;;;;;;5072111;28;20384;-60
2024/02/14 11:41:23;;;;;;;6.05;2.65;;;;;;;;;;5071940;28;20506;-60
2024/02/14 11:43:52;;;;;;;4.40;2.17;;;;;;;;;;5070498;28;20024;-60
2024/02/14 11:46:18;;;;;;;7.43;3.13;;;;;;;;;;5072274;28;20102;-60
2024/02/14 11:48:45;;;;;;;4.50;2.22;;;;;;;;;;5071809;28;20058;-61
2024/02/14 11:51:12;;;;;;;5.25;2.70;;;;;;;;;;5072116;28;20484;-60
2024/02/14 11:53:40;;;;;;;4.38;2.28;;;;;;;;;;5071816;28;20036;-60
2024/02/14 11:56:06;;;;;;;7.05;2.45;;;;;;;;;;5071753;28;20032;-60
2024/02/14 11:58:34;;;;;;;3.83;2.03;;;;;;;;;;5069926;28;20028;-59
2024/02/14 12:01:06;;;;;;;5.05;2.70;;;;;;;;;;5072064;28;20020;-60
2024/02/14 12:03:32;;;;;;;4.53;2.08;;;;;;;;;;5070188;28;20079;-58
2024/02/14 12:05:59;;;;;;;6.82;2.30;;;;;;;;;;5071902;28;20097;-60
2024/02/14 12:08:25;;;;;;;3.60;2.47;;;;;;;;;;5069244;28;20024;-60
2024/02/14 12:10:51;;;;;;;7.88;2.42;;;;;;;;;;5070142;28;20090;-60
2024/02/14 12:13:20;;;;;;;4.80;2.45;;;;;;;;;;5071617;28;20081;-60
2024/02/14 12:15:47;;;;;;;6.85;2.33;;;;;;;;;;5069321;28;20097;-59
2024/02/14 12:18:13;;;;;;;5.70;2.60;;;;;;;;;;5071347;28;20017;-59
2024/02/14 12:20:40;;;;;;;7.03;2.10;;;;;;;;;;5071465;28;20078;-60
2024/02/14 12:23:06;;;;;;;4.68;2.33;;;;;;;;;;5071219;28;20028;-60
2024/02/14 12:25:33;;;;;;;7.85;2.22;;;;;;;;;;5071333;28;20024;-60
2024/02/14 12:27:59;;;;;;;6.13;2.63;;;;;;;;;;5071535;28;20041;-61
2024/02/14 12:30:48;;;;;;;5.40;2.20;;;;;;;;;;5070054;28;20067;-60
2024/02/14 12:33:14;;;;;;;5.65;2.45;;;;;;;;;;5071360;28;20033;-60
2024/02/14 12:35:47;;;;;;;5.80;2.60;;;;;;;;;;5071112;28;20676;-60
2024/02/14 12:38:14;;;;;;;4.40;1.67;;;;;;;;;;5071449;28;20149;-58
2024/02/14 12:40:46;;;;;;;4.50;2.35;;;;;;;;;;5071317;28;20423;-57
2024/02/14 12:43:14;;;;;;;4.10;2.40;;;;;;;;;;5071339;28;20035;-58
2024/02/14 12:45:41;;;;;;;6.13;2.60;;;;;;;;;;5069882;28;20082;-58
2024/02/14 12:48:11;;;;;;;5.03;2.45;;;;;;;;;;5070923;28;20024;-57
2024/02/14 12:50:38;;;;;;;6.47;2.58;;;;;;;;;;5071346;28;20029;-58
2024/02/14 12:53:04;;;;;;;4.13;2.47;;;;;;;;;;5071125;28;20024;-57
2024/02/14 12:55:30;;;;;;;5.32;2.65;;;;;;;;;;5071046;28;20074;-58
2024/02/14 12:57:57;;;;;;;4.63;2.45;;;;;;;;;;5071200;28;20063;-57
2024/02/14 13:00:23;;;;;;;8.60;2.45;;;;;;;;;;5070740;28;20547;-59
2024/02/14 13:02:50;;;;;;;5.93;2.33;;;;;;;;;;5069780;28;20035;-58
2024/02/14 13:05:16;;;;;;;6.88;2.90;;;;;;;;;;5070974;28;20024;-58
2024/02/14 13:07:42;;;;;;;4.93;2.55;;;;;;;;;;5071217;28;20024;-58
2024/02/14 13:10:10;;;;;;;3.90;2.65;;;;;;;;;;5070938;28;20037;-57
2024/02/14 13:12:36;;;;;;;3.50;2.03;;;;;;;;;;5070943;28;20054;-58
2024/02/14 13:15:03;;;;;;;10.70;2.90;;;;;;;;;;5072233;28;20032;-57
2024/02/14 13:17:29;;;;;;;4.00;2.38;;;;;;;;;;5070612;28;20052;-57
2024/02/14 13:19:55;;;;;;;7.55;3.13;;;;;;;;;;5075433;28;20034;-58
2024/02/14 13:22:21;;;;;;;4.82;2.50;;;;;;;;;;5077905;28;20471;-59
2024/02/14 13:24:47;;;;;;;4.50;1.95;;;;;;;;;;5072506;28;20035;-58
2024/02/14 13:27:14;;;;;;;6.65;2.45;;;;;;;;;;5073359;28;20028;-58
2024/02/14 13:29:39;;;;;;;9.32;2.75;;;;;;;;;;5076418;28;20032;-59
2024/02/14 13:32:07;;;;;;;5.55;2.80;;;;;;;;;;5076519;28;20017;-57
2024/02/14 13:34:33;;;;;;;7.18;2.72;;;;;;;;;;5061275;28;20090;-58
2024/02/14 13:36:59;;;;;;;4.65;2.35;;;;;;;;;;5083608;28;20040;-58
2024/02/14 13:39:25;;;;;;;8.43;2.10;;;;;;;;;;5078903;28;20032;-58
2024/02/14 13:41:52;;;;;;;5.15;2.50;;;;;;;;;;5074341;28;20029;-58
2024/02/14 13:44:18;;;;;;;5.68;2.83;;;;;;;;;;5072871;28;20024;-58
2024/02/14 13:46:45;;;;;;;4.35;2.63;;;;;;;;;;5074359;28;20016;-57
2024/02/14 13:49:12;;;;;;;4.78;2.22;;;;;;;;;;5074295;28;20495;-58
2024/02/14 13:51:38;;;;;;;4.63;2.33;;;;;;;;;;5074137;28;20549;-57
2024/02/14 13:54:04;;;;;;;5.53;2.28;;;;;;;;;;5074680;28;20036;-58
2024/02/14 13:56:31;;;;;;;6.13;2.33;;;;;;;;;;5073798;28;20063;-58
2024/02/14 13:58:57;;;;;;;5.03;2.72;;;;;;;;;;5077317;28;20496;-58
2024/02/14 14:01:26;;;;;;;4.00;2.38;;;;;;;;;;5075620;28;20028;-57
2024/02/14 14:03:54;;;;;;;5.18;2.95;;;;;;;;;;5073951;28;20021;-57
2024/02/14 14:06:20;;;;;;;6.07;2.58;;;;;;;;;;5070762;28;20391;-58
2024/02/14 14:08:46;;;;;;;5.43;2.08;;;;;;;;;;5073926;28;20406;-58
2024/02/14 14:11:12;;;;;;;4.03;2.47;;;;;;;;;;5076886;28;20032;-60
2024/02/14 14:13:38;;;;;;;5.15;2.47;;;;;;;;;;5080784;28;20024;-58
2024/02/14 14:16:05;;;;;;;5.78;2.30;;;;;;;;;;5071369;28;20051;-58
2024/02/14 14:18:31;;;;;;;4.53;2.30;;;;;;;;;;5073794;28;20396;-58
2024/02/14 14:20:57;;;;;;;6.75;2.97;;;;;;;;;;5073308;28;20098;-58
2024/02/14 14:23:23;;;;;;;4.32;2.42;;;;;;;;;;5077426;28;20487;-58
2024/02/14 14:25:49;;;;;;;4.13;2.38;;;;;;;;;;5077376;28;20038;-58
2024/02/14 14:28:17;;;;;;;5.50;2.45;;;;;;;;;;5082161;28;20024;-57
2024/02/14 14:30:44;;;;;;;4.13;2.53;;;;;;;;;;5074899;28;20090;-58
2024/02/14 14:33:11;;;;;;;6.60;2.33;;;;;;;;;;5084067;28;20024;-58
2024/02/14 14:35:37;;;;;;;8.13;3.20;;;;;;;;;;5082023;28;20036;-59
2024/02/14 14:38:03;;;;;;;4.68;2.60;;;;;;;;;;5073263;28;20028;-59